Arcola, PA

4:16 PM EDT on July 06, 2015 (GMT -0400)
Collegeville | | Change Station
CLOSE
Current Station
Personal Weather Station
Location: Collegeville, PA
Elevation: 135 ft
Nearby Weather Stations

Elev 135 ft 40.18 °N, 75.45 °W | Updated 9 minutes ago

Partly Cloudy
Partly Cloudy
86.7 °F
Feels Like 97 °F
N
0.0
Wind Variable Wind from NW
Gusts 0.0 mph

Today
High -- | Low -- °F
--% Chance of Precip.
Yesterday
High -- | Low -- °F
Precip. -- in
5:38 AM 8:34 PM
Waning Gibbous, 72% visible
Pressure 30.09 in
Visibility 10.0 miles
Clouds Few 3000 ft
Overcast 5500 ft
Heat Index 97 °F
Dew Point 76 °F
Humidity 71%
Rainfall 0.00 in
Snow Depth Not available.
UV 2 out of 12
Pollen 2.70 out of 12
Air Quality Not available.
Flu Activity Not available.
METAR KPTW 061954Z AUTO VRB04KT 10SM FEW030 OVC055 28/21 A3010 RMK AO2 SLP189 T02830211

More Conditions Fewer Conditions

Pressure 30.09 in
Visibility 10.0 miles
Clouds Few 3000 ft
Overcast 5500 ft
Heat Index 97 °F
Dew Point 76 °F
Humidity 71%
Rainfall 0.00 in
Snow Depth Not available.
UV 2 out of 12
Pollen 2.70 out of 12
Air Quality Not available.
Flu Activity Not available.
METAR KPTW 061954Z AUTO VRB04KT 10SM FEW030 OVC055 28/21 A3010 RMK AO2 SLP189 T02830211

More Conditions Fewer Conditions

Nowcast | as of 3:46 PM EDT on July 6, 2015

Isolated to scattered showers will continue to develop and spread across the area through the late afternoon hours. A few areas may see a brief moderate to heavy downpour. A few rumbles of thunder area also possible.

×

10-Day Weather Forecast

×

Almanac

Astronomy

Jul. 06, 2015 Rise Set
Actual Time
Civil Twilight
Nautical Twilight
Astronomical Twilight
Moon
Length of Visible Light
Length of Day
Tomorrow will be .
, % of the Moon is Illuminated

Today's Extremes

State Highs State Lows

Community

WunderPhotos

Upload Photos

1,835,625 photos uploaded!

WunderBlogs® & News

Nearby

Air Quality

  Air Quality AQ Index Pollutant
Not available.

Snow Depth

Station Depth Elevation

Earthquake Activity

City Distance Mag. Time & Date
Minimum magnitude displayed is 2.5.

Coastal Water Temperatures

Place Temperature

Stations

Nearby Weather Stations

Station Location Temp. Windchill Dew Point Humidity Wind Precip. Elev Updated Type